sensor_id;sensor_type;location;lat;lon;timestamp;P1;durP1;ratioP1;P2;durP2;ratioP2
6547;SDS011;3307;52.416;16.862;2023-03-01T00:00:11;126.60;;;80.13;;
6547;SDS011;3307;52.416;16.862;2023-03-01T00:02:37;130.43;;;79.63;;
6547;SDS011;3307;52.416;16.862;2023-03-01T00:05:03;144.93;;;89.30;;
6547;SDS011;3307;52.416;16.862;2023-03-01T00:07:29;146.05;;;91.13;;
6547;SDS011;3307;52.416;16.862;2023-03-01T00:09:54;147.77;;;87.90;;
6547;SDS011;3307;52.416;16.862;2023-03-01T00:12:20;151.97;;;94.33;;
6547;SDS011;3307;52.416;16.862;2023-03-01T00:14:45;146.47;;;89.53;;
6547;SDS011;3307;52.416;16.862;2023-03-01T00:17:10;138.47;;;85.20;;
6547;SDS011;3307;52.416;16.862;2023-03-01T00:19:36;141.97;;;88.30;;
6547;SDS011;3307;52.416;16.862;2023-03-01T00:22:01;142.27;;;88.43;;
6547;SDS011;3307;52.416;16.862;2023-03-01T00:24:27;133.03;;;83.33;;
6547;SDS011;3307;52.416;16.862;2023-03-01T00:26:53;139.60;;;86.60;;
6547;SDS011;3307;52.416;16.862;2023-03-01T00:29:20;147.50;;;91.15;;
6547;SDS011;3307;52.416;16.862;2023-03-01T00:31:46;158.23;;;95.72;;
6547;SDS011;3307;52.416;16.862;2023-03-01T00:34:12;158.23;;;95.47;;
6547;SDS011;3307;52.416;16.862;2023-03-01T00:36:37;149.13;;;94.80;;
6547;SDS011;3307;52.416;16.862;2023-03-01T00:39:03;161.70;;;97.03;;
6547;SDS011;3307;52.416;16.862;2023-03-01T00:41:30;163.70;;;100.82;;
6547;SDS011;3307;52.416;16.862;2023-03-01T00:43:56;172.80;;;101.00;;
6547;SDS011;3307;52.416;16.862;2023-03-01T00:46:22;157.43;;;100.07;;
6547;SDS011;3307;52.416;16.862;2023-03-01T00:48:49;143.50;;;92.03;;
6547;SDS011;3307;52.416;16.862;2023-03-01T00:53:52;182.30;;;112.45;;
6547;SDS011;3307;52.416;16.862;2023-03-01T00:56:19;151.65;;;98.40;;
6547;SDS011;3307;52.416;16.862;2023-03-01T00:58:44;176.25;;;114.00;;
6547;SDS011;3307;52.416;16.862;2023-03-01T01:01:11;168.43;;;101.80;;
6547;SDS011;3307;52.416;16.862;2023-03-01T01:03:48;154.98;;;98.45;;
6547;SDS011;3307;52.416;16.862;2023-03-01T01:06:19;163.60;;;97.47;;
6547;SDS011;3307;52.416;16.862;2023-03-01T01:08:52;177.98;;;104.05;;
6547;SDS011;3307;52.416;16.862;2023-03-01T01:11:18;121.53;;;76.90;;
6547;SDS011;3307;52.416;16.862;2023-03-01T01:13:45;133.60;;;79.10;;
6547;SDS011;3307;52.416;16.862;2023-03-01T01:16:11;129.75;;;80.80;;
6547;SDS011;3307;52.416;16.862;2023-03-01T01:18:37;144.45;;;89.65;;
6547;SDS011;3307;52.416;16.862;2023-03-01T01:21:11;157.50;;;96.57;;
6547;SDS011;3307;52.416;16.862;2023-03-01T01:23:38;121.35;;;79.95;;
6547;SDS011;3307;52.416;16.862;2023-03-01T01:26:05;128.57;;;81.93;;
6547;SDS011;3307;52.416;16.862;2023-03-01T01:28:51;128.13;;;82.55;;
6547;SDS011;3307;52.416;16.862;2023-03-01T01:31:18;147.07;;;87.53;;
6547;SDS011;3307;52.416;16.862;2023-03-01T01:33:43;169.43;;;99.70;;
6547;SDS011;3307;52.416;16.862;2023-03-01T01:36:09;151.50;;;90.87;;
6547;SDS011;3307;52.416;16.862;2023-03-01T01:38:35;136.57;;;89.57;;
6547;SDS011;3307;52.416;16.862;2023-03-01T01:41:02;151.27;;;89.97;;
6547;SDS011;3307;52.416;16.862;2023-03-01T01:43:35;157.33;;;98.13;;
6547;SDS011;3307;52.416;16.862;2023-03-01T01:46:04;117.60;;;73.65;;
6547;SDS011;3307;52.416;16.862;2023-03-01T01:48:56;118.55;;;80.82;;
6547;SDS011;3307;52.416;16.862;2023-03-01T01:51:28;109.60;;;73.22;;
6547;SDS011;3307;52.416;16.862;2023-03-01T01:54:05;122.38;;;75.35;;
6547;SDS011;3307;52.416;16.862;2023-03-01T01:56:34;126.47;;;79.47;;
6547;SDS011;3307;52.416;16.862;2023-03-01T01:59:01;121.75;;;77.22;;
6547;SDS011;3307;52.416;16.862;2023-03-01T02:01:27;122.93;;;82.50;;
6547;SDS011;3307;52.416;16.862;2023-03-01T02:03:52;133.53;;;86.70;;
6547;SDS011;3307;52.416;16.862;2023-03-01T02:06:34;129.33;;;82.30;;
6547;SDS011;3307;52.416;16.862;2023-03-01T02:09:07;133.35;;;81.43;;
6547;SDS011;3307;52.416;16.862;2023-03-01T02:11:33;140.20;;;82.63;;
6547;SDS011;3307;52.416;16.862;2023-03-01T02:13:59;127.33;;;80.43;;
6547;SDS011;3307;52.416;16.862;2023-03-01T02:16:24;126.40;;;80.10;;
6547;SDS011;3307;52.416;16.862;2023-03-01T02:18:50;122.65;;;78.80;;
6547;SDS011;3307;52.416;16.862;2023-03-01T02:23:56;124.43;;;82.80;;
6547;SDS011;3307;52.416;16.862;2023-03-01T02:26:29;126.03;;;82.43;;
6547;SDS011;3307;52.416;16.862;2023-03-01T02:29:00;123.28;;;76.70;;
6547;SDS011;3307;52.416;16.862;2023-03-01T02:31:25;120.43;;;75.50;;
6547;SDS011;3307;52.416;16.862;2023-03-01T02:34:14;117.75;;;75.93;;
6547;SDS011;3307;52.416;16.862;2023-03-01T02:36:47;123.25;;;77.75;;
6547;SDS011;3307;52.416;16.862;2023-03-01T02:39:18;123.43;;;81.22;;
6547;SDS011;3307;52.416;16.862;2023-03-01T02:41:47;127.90;;;82.75;;
6547;SDS011;3307;52.416;16.862;2023-03-01T02:44:14;129.55;;;76.72;;
6547;SDS011;3307;52.416;16.862;2023-03-01T02:46:47;113.43;;;74.40;;
6547;SDS011;3307;52.416;16.862;2023-03-01T02:49:18;120.75;;;76.45;;
6547;SDS011;3307;52.416;16.862;2023-03-01T02:51:47;127.97;;;77.13;;
6547;SDS011;3307;52.416;16.862;2023-03-01T02:54:58;117.97;;;75.57;;
6547;SDS011;3307;52.416;16.862;2023-03-01T02:57:29;130.07;;;78.05;;
6547;SDS011;3307;52.416;16.862;2023-03-01T02:59:56;124.88;;;80.70;;
6547;SDS011;3307;52.416;16.862;2023-03-01T03:02:24;117.85;;;79.10;;
6547;SDS011;3307;52.416;16.862;2023-03-01T03:05:08;119.15;;;77.90;;
6547;SDS011;3307;52.416;16.862;2023-03-01T03:07:36;119.18;;;73.07;;
6547;SDS011;3307;52.416;16.862;2023-03-01T03:10:04;111.07;;;76.72;;
6547;SDS011;3307;52.416;16.862;2023-03-01T03:12:31;124.25;;;79.15;;
6547;SDS011;3307;52.416;16.862;2023-03-01T03:14:56;126.37;;;75.87;;
6547;SDS011;3307;52.416;16.862;2023-03-01T03:17:22;106.67;;;67.07;;
6547;SDS011;3307;52.416;16.862;2023-03-01T03:19:47;112.97;;;67.77;;
6547;SDS011;3307;52.416;16.862;2023-03-01T03:22:13;103.10;;;66.67;;
6547;SDS011;3307;52.416;16.862;2023-03-01T03:24:38;104.23;;;66.53;;
6547;SDS011;3307;52.416;16.862;2023-03-01T03:27:04;101.37;;;68.70;;
6547;SDS011;3307;52.416;16.862;2023-03-01T03:29:30;90.95;;;61.85;;
6547;SDS011;3307;52.416;16.862;2023-03-01T03:31:56;107.73;;;65.83;;
6547;SDS011;3307;52.416;16.862;2023-03-01T03:34:21;109.00;;;68.30;;
6547;SDS011;3307;52.416;16.862;2023-03-01T03:36:47;107.72;;;71.88;;
6547;SDS011;3307;52.416;16.862;2023-03-01T03:39:12;96.53;;;60.80;;
6547;SDS011;3307;52.416;16.862;2023-03-01T03:41:38;92.53;;;60.17;;
6547;SDS011;3307;52.416;16.862;2023-03-01T03:44:03;89.33;;;60.67;;
6547;SDS011;3307;52.416;16.862;2023-03-01T03:46:29;101.17;;;63.83;;
6547;SDS011;3307;52.416;16.862;2023-03-01T03:48:55;92.68;;;64.00;;
6547;SDS011;3307;52.416;16.862;2023-03-01T03:51:20;123.43;;;73.20;;
6547;SDS011;3307;52.416;16.862;2023-03-01T03:53:47;106.05;;;72.95;;
6547;SDS011;3307;52.416;16.862;2023-03-01T03:56:13;100.33;;;66.13;;
6547;SDS011;3307;52.416;16.862;2023-03-01T03:58:38;99.40;;;65.07;;
6547;SDS011;3307;52.416;16.862;2023-03-01T04:01:04;115.87;;;70.07;;
6547;SDS011;3307;52.416;16.862;2023-03-01T04:03:29;117.93;;;70.60;;
6547;SDS011;3307;52.416;16.862;2023-03-01T04:05:58;125.90;;;74.88;;
6547;SDS011;3307;52.416;16.862;2023-03-01T04:08:24;131.45;;;77.55;;
6547;SDS011;3307;52.416;16.862;2023-03-01T04:10:50;133.03;;;81.80;;
6547;SDS011;3307;52.416;16.862;2023-03-01T04:13:19;135.80;;;82.30;;
6547;SDS011;3307;52.416;16.862;2023-03-01T04:15:48;116.13;;;72.70;;
6547;SDS011;3307;52.416;16.862;2023-03-01T04:18:17;127.70;;;76.03;;
6547;SDS011;3307;52.416;16.862;2023-03-01T04:20:43;117.38;;;74.68;;
6547;SDS011;3307;52.416;16.862;2023-03-01T04:23:14;96.80;;;68.35;;
6547;SDS011;3307;52.416;16.862;2023-03-01T04:28:10;114.67;;;69.30;;
6547;SDS011;3307;52.416;16.862;2023-03-01T04:30:37;114.13;;;69.60;;
6547;SDS011;3307;52.416;16.862;2023-03-01T04:33:04;116.00;;;71.28;;
6547;SDS011;3307;52.416;16.862;2023-03-01T04:35:34;91.40;;;60.55;;
6547;SDS011;3307;52.416;16.862;2023-03-01T04:38:00;101.30;;;66.25;;
6547;SDS011;3307;52.416;16.862;2023-03-01T04:40:25;106.67;;;63.90;;
6547;SDS011;3307;52.416;16.862;2023-03-01T04:42:51;95.70;;;64.00;;
6547;SDS011;3307;52.416;16.862;2023-03-01T04:45:17;100.87;;;65.40;;
6547;SDS011;3307;52.416;16.862;2023-03-01T04:47:43;114.17;;;69.07;;
6547;SDS011;3307;52.416;16.862;2023-03-01T04:50:11;107.38;;;67.32;;
6547;SDS011;3307;52.416;16.862;2023-03-01T04:52:38;102.07;;;66.97;;
6547;SDS011;3307;52.416;16.862;2023-03-01T04:55:03;96.07;;;65.20;;
6547;SDS011;3307;52.416;16.862;2023-03-01T04:57:30;101.87;;;67.87;;
6547;SDS011;3307;52.416;16.862;2023-03-01T04:59:55;92.70;;;63.42;;
6547;SDS011;3307;52.416;16.862;2023-03-01T05:02:21;98.13;;;62.70;;
6547;SDS011;3307;52.416;16.862;2023-03-01T05:04:47;102.23;;;63.60;;
6547;SDS011;3307;52.416;16.862;2023-03-01T05:07:12;97.63;;;62.83;;
6547;SDS011;3307;52.416;16.862;2023-03-01T05:09:44;99.28;;;65.38;;
6547;SDS011;3307;52.416;16.862;2023-03-01T05:12:13;96.28;;;67.43;;
6547;SDS011;3307;52.416;16.862;2023-03-01T05:14:39;96.57;;;62.22;;
6547;SDS011;3307;52.416;16.862;2023-03-01T05:17:05;102.53;;;67.93;;
6547;SDS011;3307;52.416;16.862;2023-03-01T05:19:31;99.03;;;65.10;;
6547;SDS011;3307;52.416;16.862;2023-03-01T05:21:57;101.80;;;61.83;;
6547;SDS011;3307;52.416;16.862;2023-03-01T05:24:30;95.53;;;64.30;;
6547;SDS011;3307;52.416;16.862;2023-03-01T05:26:57;110.32;;;67.72;;
6547;SDS011;3307;52.416;16.862;2023-03-01T05:29:24;96.85;;;67.30;;
6547;SDS011;3307;52.416;16.862;2023-03-01T05:32:00;107.05;;;71.47;;
6547;SDS011;3307;52.416;16.862;2023-03-01T05:34:34;118.47;;;67.45;;
6547;SDS011;3307;52.416;16.862;2023-03-01T05:37:00;101.78;;;70.05;;
6547;SDS011;3307;52.416;16.862;2023-03-01T05:39:26;180.40;;;112.87;;
6547;SDS011;3307;52.416;16.862;2023-03-01T05:41:57;249.10;;;140.38;;
6547;SDS011;3307;52.416;16.862;2023-03-01T05:44:23;203.68;;;122.18;;
6547;SDS011;3307;52.416;16.862;2023-03-01T05:46:49;219.00;;;132.03;;
6547;SDS011;3307;52.416;16.862;2023-03-01T05:49:15;251.87;;;144.23;;
6547;SDS011;3307;52.416;16.862;2023-03-01T05:51:41;233.55;;;133.95;;
6547;SDS011;3307;52.416;16.862;2023-03-01T05:54:08;207.82;;;119.63;;
6547;SDS011;3307;52.416;16.862;2023-03-01T05:56:34;192.60;;;119.13;;
6547;SDS011;3307;52.416;16.862;2023-03-01T05:59:00;182.32;;;107.10;;
6547;SDS011;3307;52.416;16.862;2023-03-01T06:01:26;159.48;;;98.00;;
6547;SDS011;3307;52.416;16.862;2023-03-01T06:03:52;146.30;;;94.53;;
6547;SDS011;3307;52.416;16.862;2023-03-01T06:06:17;159.30;;;92.90;;
6547;SDS011;3307;52.416;16.862;2023-03-01T06:08:42;136.47;;;85.27;;
6547;SDS011;3307;52.416;16.862;2023-03-01T06:11:08;127.80;;;78.07;;
6547;SDS011;3307;52.416;16.862;2023-03-01T06:13:34;120.07;;;82.37;;
6547;SDS011;3307;52.416;16.862;2023-03-01T06:15:59;118.80;;;76.40;;
6547;SDS011;3307;52.416;16.862;2023-03-01T06:18:25;121.13;;;77.50;;
6547;SDS011;3307;52.416;16.862;2023-03-01T06:20:54;108.87;;;75.03;;
6547;SDS011;3307;52.416;16.862;2023-03-01T06:23:19;101.95;;;63.90;;
6547;SDS011;3307;52.416;16.862;2023-03-01T06:25:45;103.10;;;66.50;;
6547;SDS011;3307;52.416;16.862;2023-03-01T06:28:10;92.90;;;60.67;;
6547;SDS011;3307;52.416;16.862;2023-03-01T06:30:36;109.50;;;71.67;;
6547;SDS011;3307;52.416;16.862;2023-03-01T06:33:01;105.13;;;70.97;;
6547;SDS011;3307;52.416;16.862;2023-03-01T06:35:28;98.78;;;62.75;;
6547;SDS011;3307;52.416;16.862;2023-03-01T06:37:57;84.55;;;57.53;;
6547;SDS011;3307;52.416;16.862;2023-03-01T06:40:24;100.38;;;64.50;;
6547;SDS011;3307;52.416;16.862;2023-03-01T06:42:50;107.35;;;65.20;;
6547;SDS011;3307;52.416;16.862;2023-03-01T06:45:16;114.57;;;72.97;;
6547;SDS011;3307;52.416;16.862;2023-03-01T06:47:43;110.43;;;70.90;;
6547;SDS011;3307;52.416;16.862;2023-03-01T06:50:08;122.60;;;71.70;;
6547;SDS011;3307;52.416;16.862;2023-03-01T06:52:34;106.10;;;67.72;;
6547;SDS011;3307;52.416;16.862;2023-03-01T06:55:00;130.63;;;74.97;;
6547;SDS011;3307;52.416;16.862;2023-03-01T06:57:25;113.20;;;65.40;;
6547;SDS011;3307;52.416;16.862;2023-03-01T06:59:51;91.30;;;59.27;;
6547;SDS011;3307;52.416;16.862;2023-03-01T07:02:16;81.93;;;54.37;;
6547;SDS011;3307;52.416;16.862;2023-03-01T07:04:42;74.53;;;51.80;;
6547;SDS011;3307;52.416;16.862;2023-03-01T07:07:08;75.27;;;51.03;;
6547;SDS011;3307;52.416;16.862;2023-03-01T07:09:34;69.87;;;49.00;;
6547;SDS011;3307;52.416;16.862;2023-03-01T07:11:59;73.40;;;48.33;;
6547;SDS011;3307;52.416;16.862;2023-03-01T07:14:25;71.07;;;47.17;;
6547;SDS011;3307;52.416;16.862;2023-03-01T07:16:51;70.97;;;46.40;;
6547;SDS011;3307;52.416;16.862;2023-03-01T07:19:17;62.92;;;45.83;;
6547;SDS011;3307;52.416;16.862;2023-03-01T07:21:42;67.17;;;45.17;;
6547;SDS011;3307;52.416;16.862;2023-03-01T07:24:08;63.10;;;43.50;;
6547;SDS011;3307;52.416;16.862;2023-03-01T07:26:33;56.73;;;40.13;;
6547;SDS011;3307;52.416;16.862;2023-03-01T07:29:00;56.90;;;39.50;;
6547;SDS011;3307;52.416;16.862;2023-03-01T07:31:26;53.88;;;38.78;;
6547;SDS011;3307;52.416;16.862;2023-03-01T07:33:53;56.17;;;35.72;;
6547;SDS011;3307;52.416;16.862;2023-03-01T07:36:19;52.63;;;37.30;;
6547;SDS011;3307;52.416;16.862;2023-03-01T07:38:45;53.63;;;37.60;;
6547;SDS011;3307;52.416;16.862;2023-03-01T07:41:10;46.63;;;34.63;;
6547;SDS011;3307;52.416;16.862;2023-03-01T07:43:35;49.10;;;36.20;;
6547;SDS011;3307;52.416;16.862;2023-03-01T07:46:01;55.33;;;36.60;;
6547;SDS011;3307;52.416;16.862;2023-03-01T07:48:27;51.17;;;34.77;;
6547;SDS011;3307;52.416;16.862;2023-03-01T07:50:53;42.22;;;31.52;;
6547;SDS011;3307;52.416;16.862;2023-03-01T07:53:18;42.87;;;29.73;;
6547;SDS011;3307;52.416;16.862;2023-03-01T07:55:44;38.07;;;27.93;;
6547;SDS011;3307;52.416;16.862;2023-03-01T07:58:09;43.17;;;30.10;;
6547;SDS011;3307;52.416;16.862;2023-03-01T08:00:35;36.53;;;26.00;;
6547;SDS011;3307;52.416;16.862;2023-03-01T08:03:01;31.57;;;25.00;;
6547;SDS011;3307;52.416;16.862;2023-03-01T08:05:27;29.42;;;24.40;;
6547;SDS011;3307;52.416;16.862;2023-03-01T08:07:53;33.78;;;25.70;;
6547;SDS011;3307;52.416;16.862;2023-03-01T08:10:18;39.53;;;27.60;;
6547;SDS011;3307;52.416;16.862;2023-03-01T08:12:44;44.00;;;28.13;;
6547;SDS011;3307;52.416;16.862;2023-03-01T08:15:09;41.03;;;29.33;;
6547;SDS011;3307;52.416;16.862;2023-03-01T08:17:35;46.70;;;30.73;;
6547;SDS011;3307;52.416;16.862;2023-03-01T08:20:01;41.80;;;29.37;;
6547;SDS011;3307;52.416;16.862;2023-03-01T08:22:28;42.85;;;28.92;;
6547;SDS011;3307;52.416;16.862;2023-03-01T08:24:53;42.53;;;29.50;;
6547;SDS011;3307;52.416;16.862;2023-03-01T08:27:20;36.45;;;28.67;;
6547;SDS011;3307;52.416;16.862;2023-03-01T08:29:46;42.07;;;30.57;;
6547;SDS011;3307;52.416;16.862;2023-03-01T08:32:12;35.60;;;28.30;;
6547;SDS011;3307;52.416;16.862;2023-03-01T08:34:37;33.20;;;24.60;;
6547;SDS011;3307;52.416;16.862;2023-03-01T08:37:02;32.50;;;25.00;;
6547;SDS011;3307;52.416;16.862;2023-03-01T08:39:28;30.27;;;22.13;;
6547;SDS011;3307;52.416;16.862;2023-03-01T08:41:54;28.90;;;22.00;;
6547;SDS011;3307;52.416;16.862;2023-03-01T08:44:19;28.73;;;20.80;;
6547;SDS011;3307;52.416;16.862;2023-03-01T08:46:46;28.35;;;20.88;;
6547;SDS011;3307;52.416;16.862;2023-03-01T08:49:16;22.00;;;19.63;;
6547;SDS011;3307;52.416;16.862;2023-03-01T08:51:43;27.55;;;19.65;;
6547;SDS011;3307;52.416;16.862;2023-03-01T08:54:10;29.90;;;20.52;;
6547;SDS011;3307;52.416;16.862;2023-03-01T08:56:38;25.42;;;18.00;;
6547;SDS011;3307;52.416;16.862;2023-03-01T08:59:03;27.37;;;17.90;;
6547;SDS011;3307;52.416;16.862;2023-03-01T09:01:29;27.30;;;22.52;;
6547;SDS011;3307;52.416;16.862;2023-03-01T09:03:55;28.37;;;21.73;;
6547;SDS011;3307;52.416;16.862;2023-03-01T09:06:21;24.10;;;18.87;;
6547;SDS011;3307;52.416;16.862;2023-03-01T09:08:47;24.07;;;17.17;;
6547;SDS011;3307;52.416;16.862;2023-03-01T09:11:14;22.25;;;16.30;;
6547;SDS011;3307;52.416;16.862;2023-03-01T09:13:42;22.73;;;16.05;;
6547;SDS011;3307;52.416;16.862;2023-03-01T09:16:08;22.48;;;14.25;;
6547;SDS011;3307;52.416;16.862;2023-03-01T09:18:34;17.43;;;15.50;;
6547;SDS011;3307;52.416;16.862;2023-03-01T09:21:01;19.55;;;11.93;;
6547;SDS011;3307;52.416;16.862;2023-03-01T09:23:32;17.27;;;13.20;;
6547;SDS011;3307;52.416;16.862;2023-03-01T09:25:59;15.63;;;11.20;;
6547;SDS011;3307;52.416;16.862;2023-03-01T09:28:24;17.60;;;12.60;;
6547;SDS011;3307;52.416;16.862;2023-03-01T09:30:50;17.13;;;13.37;;
6547;SDS011;3307;52.416;16.862;2023-03-01T09:33:15;18.90;;;13.73;;
6547;SDS011;3307;52.416;16.862;2023-03-01T09:35:41;21.07;;;12.70;;
6547;SDS011;3307;52.416;16.862;2023-03-01T09:38:11;15.90;;;13.88;;
6547;SDS011;3307;52.416;16.862;2023-03-01T09:40:41;18.48;;;14.10;;
6547;SDS011;3307;52.416;16.862;2023-03-01T09:43:08;17.65;;;13.75;;
6547;SDS011;3307;52.416;16.862;2023-03-01T09:45:44;23.65;;;15.88;;
6547;SDS011;3307;52.416;16.862;2023-03-01T09:48:16;16.40;;;10.53;;
6547;SDS011;3307;52.416;16.862;2023-03-01T09:50:43;13.55;;;10.10;;
6547;SDS011;3307;52.416;16.862;2023-03-01T09:53:18;14.02;;;10.88;;
6547;SDS011;3307;52.416;16.862;2023-03-01T09:55:46;12.70;;;9.20;;
6547;SDS011;3307;52.416;16.862;2023-03-01T10:04:27;11.73;;;7.00;;
6547;SDS011;3307;52.416;16.862;2023-03-01T10:09:34;8.07;;;7.15;;
6547;SDS011;3307;52.416;16.862;2023-03-01T10:12:02;8.65;;;7.50;;
6547;SDS011;3307;52.416;16.862;2023-03-01T10:14:38;11.57;;;7.55;;
6547;SDS011;3307;52.416;16.862;2023-03-01T10:19:43;9.38;;;6.95;;
6547;SDS011;3307;52.416;16.862;2023-03-01T10:24:50;11.32;;;9.30;;
6547;SDS011;3307;52.416;16.862;2023-03-01T10:27:18;10.30;;;7.60;;
6547;SDS011;3307;52.416;16.862;2023-03-01T10:29:48;10.75;;;8.75;;
6547;SDS011;3307;52.416;16.862;2023-03-01T10:32:14;8.93;;;7.90;;
6547;SDS011;3307;52.416;16.862;2023-03-01T10:34:40;11.20;;;8.80;;
6547;SDS011;3307;52.416;16.862;2023-03-01T10:39:36;9.73;;;8.45;;
6547;SDS011;3307;52.416;16.862;2023-03-01T10:42:05;11.47;;;7.87;;
6547;SDS011;3307;52.416;16.862;2023-03-01T10:44:45;11.15;;;8.52;;
6547;SDS011;3307;52.416;16.862;2023-03-01T10:47:33;10.75;;;7.38;;
6547;SDS011;3307;52.416;16.862;2023-03-01T10:50:02;8.40;;;7.50;;
6547;SDS011;3307;52.416;16.862;2023-03-01T10:52:30;11.13;;;9.23;;
6547;SDS011;3307;52.416;16.862;2023-03-01T10:55:02;11.70;;;8.80;;
6547;SDS011;3307;52.416;16.862;2023-03-01T10:57:40;12.65;;;8.27;;
6547;SDS011;3307;52.416;16.862;2023-03-01T11:00:14;13.75;;;10.68;;
6547;SDS011;3307;52.416;16.862;2023-03-01T11:02:51;14.43;;;9.68;;
6547;SDS011;3307;52.416;16.862;2023-03-01T11:05:28;10.38;;;8.15;;
6547;SDS011;3307;52.416;16.862;2023-03-01T11:07:59;10.38;;;6.85;;
6547;SDS011;3307;52.416;16.862;2023-03-01T11:10:26;10.55;;;7.07;;
6547;SDS011;3307;52.416;16.862;2023-03-01T11:12:53;10.48;;;8.00;;
6547;SDS011;3307;52.416;16.862;2023-03-01T11:15:31;10.13;;;7.55;;
6547;SDS011;3307;52.416;16.862;2023-03-01T11:17:57;11.30;;;7.97;;
6547;SDS011;3307;52.416;16.862;2023-03-01T11:23:11;8.45;;;7.53;;
6547;SDS011;3307;52.416;16.862;2023-03-01T11:25:39;9.60;;;8.45;;
6547;SDS011;3307;52.416;16.862;2023-03-01T11:28:09;12.00;;;7.90;;
6547;SDS011;3307;52.416;16.862;2023-03-01T11:30:54;7.75;;;6.95;;
6547;SDS011;3307;52.416;16.862;2023-03-01T11:38:38;12.02;;;8.00;;
6547;SDS011;3307;52.416;16.862;2023-03-01T11:41:10;7.77;;;6.60;;
6547;SDS011;3307;52.416;16.862;2023-03-01T11:57:55;7.93;;;6.80;;
6547;SDS011;3307;52.416;16.862;2023-03-01T12:03:19;8.38;;;6.47;;
6547;SDS011;3307;52.416;16.862;2023-03-01T12:05:59;6.45;;;5.32;;
6547;SDS011;3307;52.416;16.862;2023-03-01T12:14:00;7.72;;;6.25;;
6547;SDS011;3307;52.416;16.862;2023-03-01T12:16:40;8.30;;;6.75;;
6547;SDS011;3307;52.416;16.862;2023-03-01T12:19:31;9.40;;;6.82;;
6547;SDS011;3307;52.416;16.862;2023-03-01T12:36:22;11.60;;;7.75;;
6547;SDS011;3307;52.416;16.862;2023-03-01T12:51:34;8.93;;;7.55;;
6547;SDS011;3307;52.416;16.862;2023-03-01T12:54:26;9.43;;;8.02;;
6547;SDS011;3307;52.416;16.862;2023-03-01T12:57:01;7.43;;;6.60;;
6547;SDS011;3307;52.416;16.862;2023-03-01T12:59:39;7.22;;;6.32;;
6547;SDS011;3307;52.416;16.862;2023-03-01T13:05:26;9.30;;;7.40;;
6547;SDS011;3307;52.416;16.862;2023-03-01T13:17:55;8.10;;;6.90;;
6547;SDS011;3307;52.416;16.862;2023-03-01T13:26:07;10.90;;;6.18;;
6547;SDS011;3307;52.416;16.862;2023-03-01T13:33:43;8.57;;;6.50;;
6547;SDS011;3307;52.416;16.862;2023-03-01T13:44:12;17.85;;;16.15;;
6547;SDS011;3307;52.416;16.862;2023-03-01T13:46:43;11.40;;;8.18;;
6547;SDS011;3307;52.416;16.862;2023-03-01T13:49:09;6.72;;;6.07;;
6547;SDS011;3307;52.416;16.862;2023-03-01T13:51:39;8.57;;;6.15;;
6547;SDS011;3307;52.416;16.862;2023-03-01T13:54:05;6.90;;;6.13;;
6547;SDS011;3307;52.416;16.862;2023-03-01T13:56:36;7.70;;;6.70;;
6547;SDS011;3307;52.416;16.862;2023-03-01T13:59:05;8.45;;;7.30;;
6547;SDS011;3307;52.416;16.862;2023-03-01T14:01:38;8.25;;;6.97;;
6547;SDS011;3307;52.416;16.862;2023-03-01T14:04:17;8.53;;;7.20;;
6547;SDS011;3307;52.416;16.862;2023-03-01T14:06:46;9.95;;;7.55;;
6547;SDS011;3307;52.416;16.862;2023-03-01T14:20:11;19.92;;;17.73;;
6547;SDS011;3307;52.416;16.862;2023-03-01T14:22:40;7.40;;;6.70;;
6547;SDS011;3307;52.416;16.862;2023-03-01T14:25:17;7.55;;;5.80;;
6547;SDS011;3307;52.416;16.862;2023-03-01T14:27:42;8.90;;;7.32;;
6547;SDS011;3307;52.416;16.862;2023-03-01T14:30:31;9.20;;;7.32;;
6547;SDS011;3307;52.416;16.862;2023-03-01T14:33:00;28.20;;;25.65;;
6547;SDS011;3307;52.416;16.862;2023-03-01T14:35:28;8.68;;;7.78;;
6547;SDS011;3307;52.416;16.862;2023-03-01T14:37:55;9.23;;;7.28;;
6547;SDS011;3307;52.416;16.862;2023-03-01T14:40:25;7.70;;;6.87;;
6547;SDS011;3307;52.416;16.862;2023-03-01T14:42:59;11.52;;;7.43;;
6547;SDS011;3307;52.416;16.862;2023-03-01T14:45:26;10.00;;;8.07;;
6547;SDS011;3307;52.416;16.862;2023-03-01T14:47:53;17.33;;;14.40;;
6547;SDS011;3307;52.416;16.862;2023-03-01T14:50:27;8.05;;;6.93;;
6547;SDS011;3307;52.416;16.862;2023-03-01T14:53:01;8.95;;;7.13;;
6547;SDS011;3307;52.416;16.862;2023-03-01T14:55:33;10.10;;;7.63;;
6547;SDS011;3307;52.416;16.862;2023-03-01T14:58:03;9.13;;;8.15;;
6547;SDS011;3307;52.416;16.862;2023-03-01T15:00:31;12.30;;;8.10;;
6547;SDS011;3307;52.416;16.862;2023-03-01T15:03:00;9.50;;;8.20;;
6547;SDS011;3307;52.416;16.862;2023-03-01T15:05:34;8.80;;;7.50;;
6547;SDS011;3307;52.416;16.862;2023-03-01T15:08:02;8.50;;;6.90;;
6547;SDS011;3307;52.416;16.862;2023-03-01T15:10:29;9.48;;;7.38;;
6547;SDS011;3307;52.416;16.862;2023-03-01T15:12:56;7.70;;;6.90;;
6547;SDS011;3307;52.416;16.862;2023-03-01T15:15:38;10.43;;;6.93;;
6547;SDS011;3307;52.416;16.862;2023-03-01T15:18:14;8.68;;;7.88;;
6547;SDS011;3307;52.416;16.862;2023-03-01T15:20:47;10.30;;;8.13;;
6547;SDS011;3307;52.416;16.862;2023-03-01T15:23:18;15.68;;;12.50;;
6547;SDS011;3307;52.416;16.862;2023-03-01T15:25:49;10.10;;;8.75;;
6547;SDS011;3307;52.416;16.862;2023-03-01T15:28:21;8.82;;;7.90;;
6547;SDS011;3307;52.416;16.862;2023-03-01T15:30:52;12.52;;;7.85;;
6547;SDS011;3307;52.416;16.862;2023-03-01T15:35:49;8.90;;;8.00;;
6547;SDS011;3307;52.416;16.862;2023-03-01T15:38:32;13.27;;;9.40;;
6547;SDS011;3307;52.416;16.862;2023-03-01T15:41:03;12.70;;;9.85;;
6547;SDS011;3307;52.416;16.862;2023-03-01T15:43:43;10.80;;;9.02;;
6547;SDS011;3307;52.416;16.862;2023-03-01T15:48:46;11.50;;;9.15;;
6547;SDS011;3307;52.416;16.862;2023-03-01T15:51:14;16.65;;;12.55;;
6547;SDS011;3307;52.416;16.862;2023-03-01T15:53:40;11.27;;;9.10;;
6547;SDS011;3307;52.416;16.862;2023-03-01T15:56:06;10.03;;;9.03;;
6547;SDS011;3307;52.416;16.862;2023-03-01T15:58:32;11.68;;;9.68;;
6547;SDS011;3307;52.416;16.862;2023-03-01T16:00:58;11.93;;;10.33;;
6547;SDS011;3307;52.416;16.862;2023-03-01T16:03:24;9.70;;;8.70;;
6547;SDS011;3307;52.416;16.862;2023-03-01T16:05:49;13.60;;;11.47;;
6547;SDS011;3307;52.416;16.862;2023-03-01T16:08:16;12.80;;;10.68;;
6547;SDS011;3307;52.416;16.862;2023-03-01T16:10:42;11.45;;;10.32;;
6547;SDS011;3307;52.416;16.862;2023-03-01T16:13:09;11.53;;;10.10;;
6547;SDS011;3307;52.416;16.862;2023-03-01T16:15:35;14.38;;;11.45;;
6547;SDS011;3307;52.416;16.862;2023-03-01T16:18:01;17.90;;;11.57;;
6547;SDS011;3307;52.416;16.862;2023-03-01T16:20:27;15.47;;;11.10;;
6547;SDS011;3307;52.416;16.862;2023-03-01T16:22:53;12.90;;;10.20;;
6547;SDS011;3307;52.416;16.862;2023-03-01T16:25:20;14.13;;;10.98;;
6547;SDS011;3307;52.416;16.862;2023-03-01T16:27:46;14.43;;;10.18;;
6547;SDS011;3307;52.416;16.862;2023-03-01T16:30:13;12.60;;;10.38;;
6547;SDS011;3307;52.416;16.862;2023-03-01T16:32:41;16.52;;;9.88;;
6547;SDS011;3307;52.416;16.862;2023-03-01T16:35:09;16.65;;;10.85;;
6547;SDS011;3307;52.416;16.862;2023-03-01T16:37:37;19.63;;;10.90;;
6547;SDS011;3307;52.416;16.862;2023-03-01T16:40:03;11.30;;;9.60;;
6547;SDS011;3307;52.416;16.862;2023-03-01T16:42:34;18.77;;;10.55;;
6547;SDS011;3307;52.416;16.862;2023-03-01T16:45:00;15.38;;;11.45;;
6547;SDS011;3307;52.416;16.862;2023-03-01T16:47:26;33.53;;;19.58;;
6547;SDS011;3307;52.416;16.862;2023-03-01T16:49:52;32.77;;;19.30;;